Time;durP1;ratioP1;P1;durP2;ratioP2;P2;SDS_P1;SDS_P2;PMS_P1;PMS_P2;Temp;Humidity;BMP_temperature;BMP_pressure;BME280_temperature;BME280_humidity;BME280_pressure;Samples;Min_cycle;Max_cycle;Signal;HPM_P1;HPM_P2
2021/01/22 00:01:11;;;;;;;3.08;1.05;;;;;;;;;;5050336;28;20032;-79
2021/01/22 00:03:37;;;;;;;2.17;1.08;;;;;;;;;;5049965;28;20033;-80
2021/01/22 00:06:03;;;;;;;3.33;1.67;;;;;;;;;;5050379;28;20017;-78
2021/01/22 00:08:29;;;;;;;2.42;1.20;;;;;;;;;;5050303;28;20052;-79
2021/01/22 00:10:55;;;;;;;2.78;1.23;;;;;;;;;;5051545;28;20028;-79
2021/01/22 00:13:21;;;;;;;1.88;1.20;;;;;;;;;;5053978;28;20020;-80
2021/01/22 00:15:47;;;;;;;2.25;1.50;;;;;;;;;;5055031;28;20021;-80
2021/01/22 00:18:13;;;;;;;3.45;1.58;;;;;;;;;;5055086;28;20077;-80
2021/01/22 00:20:39;;;;;;;2.28;1.30;;;;;;;;;;5053307;28;20044;-79
2021/01/22 00:23:05;;;;;;;2.50;1.48;;;;;;;;;;5053384;28;20465;-80
2021/01/22 00:25:31;;;;;;;2.92;1.70;;;;;;;;;;5053790;28;20052;-78
2021/01/22 00:27:57;;;;;;;2.80;1.60;;;;;;;;;;5055239;28;20515;-79
2021/01/22 00:30:23;;;;;;;3.85;1.90;;;;;;;;;;5054862;28;20021;-79
2021/01/22 00:32:49;;;;;;;3.67;1.48;;;;;;;;;;5053239;28;20024;-79
2021/01/22 00:35:15;;;;;;;2.38;1.30;;;;;;;;;;5053565;28;20017;-79
2021/01/22 00:37:41;;;;;;;2.92;1.60;;;;;;;;;;5052980;28;20465;-79
2021/01/22 00:40:08;;;;;;;1.92;1.20;;;;;;;;;;5053339;28;20040;-79
2021/01/22 00:42:34;;;;;;;3.10;1.60;;;;;;;;;;5053069;28;20481;-80
2021/01/22 00:45:00;;;;;;;1.90;1.15;;;;;;;;;;5053296;28;20064;-80
2021/01/22 00:47:26;;;;;;;2.00;1.10;;;;;;;;;;5053108;28;20087;-80
2021/01/22 00:49:52;;;;;;;2.05;1.08;;;;;;;;;;5054302;28;20449;-79
2021/01/22 00:52:18;;;;;;;2.75;1.00;;;;;;;;;;5053061;28;20020;-79
2021/01/22 00:54:44;;;;;;;2.15;1.30;;;;;;;;;;5052953;28;20074;-79
2021/01/22 00:57:10;;;;;;;3.40;1.42;;;;;;;;;;5054512;28;20056;-79
2021/01/22 00:59:36;;;;;;;2.13;1.38;;;;;;;;;;5052827;28;20052;-79
2021/01/22 01:02:02;;;;;;;4.88;1.58;;;;;;;;;;5053021;28;20337;-79
2021/01/22 01:04:28;;;;;;;2.63;1.50;;;;;;;;;;5053021;28;20075;-79
2021/01/22 01:06:54;;;;;;;4.63;2.05;;;;;;;;;;5052657;28;20024;-78
2021/01/22 01:09:20;;;;;;;2.92;1.73;;;;;;;;;;5052604;28;20122;-79
2021/01/22 01:11:46;;;;;;;5.47;2.10;;;;;;;;;;5053719;28;20020;-79
2021/01/22 01:14:12;;;;;;;3.60;2.22;;;;;;;;;;5052805;28;20021;-80
2021/01/22 01:16:39;;;;;;;3.00;1.58;;;;;;;;;;5053912;28;20057;-80
2021/01/22 01:19:05;;;;;;;3.92;1.92;;;;;;;;;;5052655;28;20119;-78
2021/01/22 01:21:31;;;;;;;4.10;1.70;;;;;;;;;;5053893;28;20075;-79
2021/01/22 01:23:57;;;;;;;5.18;1.98;;;;;;;;;;5051756;28;20118;-78
2021/01/22 01:26:24;;;;;;;4.05;1.88;;;;;;;;;;5053813;28;20066;-78
2021/01/22 01:28:50;;;;;;;5.53;1.98;;;;;;;;;;5053631;28;20044;-78
2021/01/22 01:31:16;;;;;;;4.57;2.22;;;;;;;;;;5068256;28;20406;-78
2021/01/22 01:33:42;;;;;;;4.85;2.13;;;;;;;;;;5073481;28;20027;-78
2021/01/22 01:36:08;;;;;;;5.75;2.00;;;;;;;;;;5072315;28;20048;-78
2021/01/22 01:38:34;;;;;;;3.88;1.67;;;;;;;;;;5072264;28;20020;-78
2021/01/22 01:41:00;;;;;;;5.70;2.00;;;;;;;;;;5073231;28;20469;-79
2021/01/22 01:43:26;;;;;;;4.20;2.03;;;;;;;;;;5073369;28;20072;-79
2021/01/22 01:45:52;;;;;;;3.35;1.70;;;;;;;;;;5073084;28;20135;-79
2021/01/22 01:48:19;;;;;;;7.00;2.50;;;;;;;;;;5072012;28;20453;-78
2021/01/22 01:50:45;;;;;;;9.27;4.35;;;;;;;;;;5071911;28;20422;-78
2021/01/22 01:53:11;;;;;;;7.93;3.55;;;;;;;;;;5071955;28;20030;-78
2021/01/22 01:55:38;;;;;;;5.88;3.13;;;;;;;;;;5072024;28;20043;-79
2021/01/22 01:58:05;;;;;;;4.93;2.47;;;;;;;;;;5072015;28;20070;-78
2021/01/22 02:00:35;;;;;;;13.13;4.57;;;;;;;;;;5071800;28;20032;-79
2021/01/22 02:03:01;;;;;;;5.28;2.55;;;;;;;;;;5071517;28;20407;-79
2021/01/22 02:05:27;;;;;;;6.57;3.47;;;;;;;;;;5071542;28;20461;-79
2021/01/22 02:07:54;;;;;;;8.80;3.88;;;;;;;;;;5072731;28;20488;-79
2021/01/22 02:10:20;;;;;;;10.88;3.90;;;;;;;;;;5071663;28;20498;-79
2021/01/22 02:12:47;;;;;;;9.25;4.05;;;;;;;;;;5071386;28;20368;-79
2021/01/22 02:15:14;;;;;;;8.35;4.13;;;;;;;;;;5071638;28;20024;-79
2021/01/22 02:17:41;;;;;;;8.48;4.35;;;;;;;;;;5072678;28;20013;-79
2021/01/22 02:20:26;;;;;;;7.18;3.53;;;;;;;;;;5071378;28;20021;-79
2021/01/22 02:22:53;;;;;;;9.73;5.05;;;;;;;;;;5071250;28;20032;-78
2021/01/22 02:25:23;;;;;;;11.98;6.43;;;;;;;;;;5072801;28;20051;-78
2021/01/22 02:27:49;;;;;;;8.75;4.80;;;;;;;;;;5071281;28;20021;-78
2021/01/22 02:30:16;;;;;;;12.50;5.75;;;;;;;;;;5063650;28;20017;-78
2021/01/22 02:32:45;;;;;;;9.77;4.82;;;;;;;;;;5050816;28;20055;-78
2021/01/22 02:35:12;;;;;;;11.30;6.07;;;;;;;;;;5050193;28;20074;-78
2021/01/22 02:37:38;;;;;;;8.75;5.20;;;;;;;;;;5051239;28;20056;-79
2021/01/22 02:40:11;;;;;;;10.38;6.47;;;;;;;;;;5050919;28;20032;-80
2021/01/22 02:42:41;;;;;;;11.55;6.68;;;;;;;;;;5050975;28;20052;-79
2021/01/22 02:45:08;;;;;;;14.75;8.77;;;;;;;;;;5050941;28;20013;-79
2021/01/22 02:47:34;;;;;;;12.35;7.35;;;;;;;;;;5051161;28;20075;-79
2021/01/22 02:50:00;;;;;;;14.25;8.50;;;;;;;;;;5050848;28;20028;-79
2021/01/22 02:52:26;;;;;;;14.55;8.93;;;;;;;;;;5051001;28;20017;-79
2021/01/22 02:54:52;;;;;;;15.73;8.68;;;;;;;;;;5050829;28;20122;-79
2021/01/22 02:57:24;;;;;;;16.35;9.57;;;;;;;;;;5052497;28;20559;-79
2021/01/22 03:00:08;;;;;;;13.77;7.97;;;;;;;;;;5050661;28;20021;-79
2021/01/22 03:02:50;;;;;;;14.73;8.32;;;;;;;;;;5050917;28;20016;-80
2021/01/22 03:05:17;;;;;;;12.93;7.68;;;;;;;;;;5050702;28;20052;-79
2021/01/22 03:07:43;;;;;;;15.13;9.48;;;;;;;;;;5051915;28;20025;-79
2021/01/22 03:10:10;;;;;;;15.48;9.13;;;;;;;;;;5052142;28;20021;-79
2021/01/22 03:12:37;;;;;;;14.43;9.15;;;;;;;;;;5052322;28;20104;-79
2021/01/22 03:15:04;;;;;;;13.32;8.70;;;;;;;;;;5050342;28;20025;-79
2021/01/22 03:17:30;;;;;;;12.63;8.20;;;;;;;;;;5052082;28;20580;-79
2021/01/22 03:19:57;;;;;;;13.32;8.45;;;;;;;;;;5050331;28;20040;-78
2021/01/22 03:22:23;;;;;;;18.95;9.68;;;;;;;;;;5050707;28;20025;-78
2021/01/22 03:24:49;;;;;;;23.80;10.65;;;;;;;;;;5050273;28;20056;-79
2021/01/22 03:27:15;;;;;;;17.85;10.40;;;;;;;;;;5050834;28;20017;-78
2021/01/22 03:29:41;;;;;;;15.07;9.80;;;;;;;;;;5051937;28;20041;-79
2021/01/22 03:32:08;;;;;;;15.77;9.65;;;;;;;;;;5051478;28;20053;-79
2021/01/22 03:34:34;;;;;;;14.35;9.13;;;;;;;;;;5051670;28;20013;-79
2021/01/22 03:37:01;;;;;;;13.35;8.93;;;;;;;;;;5050361;28;20017;-79
2021/01/22 03:39:27;;;;;;;12.05;8.15;;;;;;;;;;5050613;28;20028;-78
2021/01/22 03:41:53;;;;;;;14.00;9.43;;;;;;;;;;5050061;28;20132;-78
2021/01/22 03:44:19;;;;;;;10.25;7.60;;;;;;;;;;5050551;28;20080;-78
2021/01/22 03:46:46;;;;;;;13.55;7.65;;;;;;;;;;5053246;28;20465;-78
2021/01/22 03:49:12;;;;;;;12.00;7.28;;;;;;;;;;5054433;28;20056;-78
2021/01/22 03:51:38;;;;;;;12.10;7.50;;;;;;;;;;5054508;28;20049;-78
2021/01/22 03:54:05;;;;;;;9.90;6.25;;;;;;;;;;5053779;28;20040;-78
2021/01/22 03:56:32;;;;;;;10.65;5.25;;;;;;;;;;5054245;28;20083;-78
2021/01/22 03:58:58;;;;;;;9.10;5.90;;;;;;;;;;5055400;28;20036;-79
2021/01/22 04:01:24;;;;;;;11.32;5.65;;;;;;;;;;5054135;28;20025;-80
2021/01/22 04:03:50;;;;;;;5.50;3.45;;;;;;;;;;5053928;28;20025;-79
2021/01/22 04:06:16;;;;;;;10.50;4.57;;;;;;;;;;5053817;28;20017;-79
2021/01/22 04:08:42;;;;;;;8.52;4.72;;;;;;;;;;5053941;28;20025;-79
2021/01/22 04:11:09;;;;;;;7.70;4.50;;;;;;;;;;5053832;28;20060;-78
2021/01/22 04:13:35;;;;;;;6.53;3.97;;;;;;;;;;5054017;28;20021;-78
2021/01/22 04:16:02;;;;;;;7.38;4.05;;;;;;;;;;5053704;28;20051;-78
2021/01/22 04:18:28;;;;;;;7.20;3.55;;;;;;;;;;5055128;28;20025;-78
2021/01/22 04:20:54;;;;;;;11.32;4.85;;;;;;;;;;5053250;28;20082;-79
2021/01/22 04:23:20;;;;;;;6.93;3.67;;;;;;;;;;5055131;28;20146;-79
2021/01/22 04:25:47;;;;;;;5.93;3.42;;;;;;;;;;5053545;28;20017;-78
2021/01/22 04:28:13;;;;;;;7.25;3.47;;;;;;;;;;5053495;28;20017;-78
2021/01/22 04:30:39;;;;;;;6.53;3.08;;;;;;;;;;5053523;28;20644;-79
2021/01/22 04:33:05;;;;;;;7.10;3.63;;;;;;;;;;5054364;28;20021;-78
2021/01/22 04:35:31;;;;;;;10.02;3.60;;;;;;;;;;5053580;28;20489;-79
2021/01/22 04:37:57;;;;;;;7.50;3.80;;;;;;;;;;5053374;28;20023;-78
2021/01/22 04:40:25;;;;;;;8.48;4.03;;;;;;;;;;5053441;28;20526;-78
2021/01/22 04:42:51;;;;;;;6.50;2.90;;;;;;;;;;5052827;28;20045;-78
2021/01/22 04:45:17;;;;;;;6.57;2.40;;;;;;;;;;5053130;28;20108;-78
2021/01/22 04:47:43;;;;;;;5.63;3.13;;;;;;;;;;5053342;28;20108;-79
2021/01/22 04:50:10;;;;;;;8.07;3.63;;;;;;;;;;5053032;28;20102;-78
2021/01/22 04:52:36;;;;;;;10.13;4.35;;;;;;;;;;5054839;28;20458;-78
2021/01/22 04:55:05;;;;;;;7.70;3.92;;;;;;;;;;5052956;28;20484;-78
2021/01/22 04:57:32;;;;;;;6.78;4.10;;;;;;;;;;5052311;28;20056;-78
2021/01/22 04:59:59;;;;;;;6.10;3.70;;;;;;;;;;5053935;28;20444;-78
2021/01/22 05:02:24;;;;;;;7.72;3.78;;;;;;;;;;5052948;28;20454;-78
2021/01/22 05:04:51;;;;;;;8.55;5.40;;;;;;;;;;5052872;28;20055;-78
2021/01/22 05:07:20;;;;;;;11.10;4.30;;;;;;;;;;5054274;28;20009;-79
2021/01/22 05:09:46;;;;;;;7.93;4.18;;;;;;;;;;5052939;28;20052;-78
2021/01/22 05:12:12;;;;;;;8.77;5.05;;;;;;;;;;5054254;28;20408;-78
2021/01/22 05:14:38;;;;;;;7.97;5.10;;;;;;;;;;5054373;28;20038;-78
2021/01/22 05:17:04;;;;;;;11.43;6.05;;;;;;;;;;5052476;28;20098;-79
2021/01/22 05:19:31;;;;;;;13.10;7.32;;;;;;;;;;5053770;28;20537;-79
2021/01/22 05:21:57;;;;;;;12.55;7.53;;;;;;;;;;5052359;28;20442;-79
2021/01/22 05:24:26;;;;;;;17.60;9.00;;;;;;;;;;5052336;28;20048;-79
2021/01/22 05:26:59;;;;;;;16.90;10.00;;;;;;;;;;5052496;28;20043;-79
2021/01/22 05:29:27;;;;;;;20.08;11.32;;;;;;;;;;5052514;28;20381;-79
2021/01/22 05:31:53;;;;;;;19.08;12.45;;;;;;;;;;5052273;28;20028;-78
2021/01/22 05:34:19;;;;;;;18.45;11.63;;;;;;;;;;5052426;28;20664;-78
2021/01/22 05:36:47;;;;;;;18.30;10.82;;;;;;;;;;5053732;28;20478;-78
2021/01/22 05:39:22;;;;;;;21.95;13.50;;;;;;;;;;5052071;28;20452;-78
2021/01/22 05:41:53;;;;;;;20.50;12.77;;;;;;;;;;5052126;28;20102;-78
2021/01/22 05:44:19;;;;;;;;;;;;;;;;;;5052356;28;20021;-79
2021/01/22 05:46:59;;;;;;;19.63;12.35;;;;;;;;;;5051919;28;19907;-79
2021/01/22 05:49:25;;;;;;;19.80;14.02;;;;;;;;;;5052253;28;20170;-77
2021/01/22 05:51:51;;;;;;;22.27;15.10;;;;;;;;;;5052111;28;20493;-79
2021/01/22 05:54:33;;;;;;;23.40;16.27;;;;;;;;;;5053641;28;20021;-78
2021/01/22 05:56:59;;;;;;;24.00;14.93;;;;;;;;;;5051731;28;20118;-78
2021/01/22 05:59:25;;;;;;;24.58;15.35;;;;;;;;;;5052046;28;20028;-78
2021/01/22 06:01:51;;;;;;;27.73;17.23;;;;;;;;;;5053158;28;20025;-79
2021/01/22 06:04:17;;;;;;;24.65;13.93;;;;;;;;;;5053199;28;20025;-79
2021/01/22 06:06:43;;;;;;;27.75;17.05;;;;;;;;;;5053064;28;20029;-79
2021/01/22 06:09:09;;;;;;;21.83;15.25;;;;;;;;;;5051450;28;20020;-78
2021/01/22 06:11:35;;;;;;;23.75;15.77;;;;;;;;;;5051778;28;20114;-79
2021/01/22 06:14:05;;;;;;;26.13;16.48;;;;;;;;;;5051244;28;20108;-78
2021/01/22 06:16:31;;;;;;;26.98;17.25;;;;;;;;;;5051807;28;20067;-79
2021/01/22 06:19:04;;;;;;;28.90;17.42;;;;;;;;;;5051373;28;20444;-78
2021/01/22 06:21:31;;;;;;;25.58;17.45;;;;;;;;;;5051499;28;20032;-79
2021/01/22 06:23:57;;;;;;;27.23;18.90;;;;;;;;;;5051396;28;20108;-79
2021/01/22 06:26:23;;;;;;;27.83;18.98;;;;;;;;;;5052929;28;20032;-78
2021/01/22 06:28:50;;;;;;;25.77;17.65;;;;;;;;;;5052439;28;20360;-78
2021/01/22 06:31:20;;;;;;;28.02;18.92;;;;;;;;;;5052382;28;20472;-78
2021/01/22 06:33:49;;;;;;;31.80;20.63;;;;;;;;;;5051004;28;20021;-79
2021/01/22 06:36:17;;;;;;;31.00;20.05;;;;;;;;;;5051090;28;20771;-78
2021/01/22 06:38:43;;;;;;;27.75;19.60;;;;;;;;;;5052523;28;20064;-80
2021/01/22 06:41:10;;;;;;;32.17;19.33;;;;;;;;;;5051016;28;20025;-79
2021/01/22 06:43:39;;;;;;;30.90;19.42;;;;;;;;;;5052562;28;20087;-79
2021/01/22 06:46:08;;;;;;;31.45;20.48;;;;;;;;;;5052520;28;20021;-78
2021/01/22 06:48:50;;;;;;;28.85;18.60;;;;;;;;;;5051127;28;20118;-79
2021/01/22 06:51:16;;;;;;;32.53;19.50;;;;;;;;;;5052179;28;20024;-79
2021/01/22 06:54:01;;;;;;;30.38;19.38;;;;;;;;;;5051052;28;20024;-79
2021/01/22 06:56:27;;;;;;;26.48;17.88;;;;;;;;;;5051162;28;20017;-79
2021/01/22 06:58:53;;;;;;;26.58;18.05;;;;;;;;;;5051077;28;20021;-78
2021/01/22 07:01:31;;;;;;;32.45;21.02;;;;;;;;;;5050620;28;20610;-79
2021/01/22 07:03:57;;;;;;;33.50;19.60;;;;;;;;;;5052006;28;20028;-79
2021/01/22 07:06:35;;;;;;;30.13;19.88;;;;;;;;;;5050991;28;20021;-78
2021/01/22 07:09:01;;;;;;;27.95;18.42;;;;;;;;;;5049976;28;20013;-78
2021/01/22 07:11:47;;;;;;;30.38;18.58;;;;;;;;;;5050351;28;20047;-79
2021/01/22 07:14:32;;;;;;;31.00;18.58;;;;;;;;;;5049713;28;20029;-80
2021/01/22 07:16:58;;;;;;;29.55;18.70;;;;;;;;;;5051300;28;20560;-80
2021/01/22 07:19:24;;;;;;;26.30;18.50;;;;;;;;;;5050816;28;20116;-80
2021/01/22 07:21:53;;;;;;;28.05;19.75;;;;;;;;;;5062915;28;20107;-81
2021/01/22 07:24:21;;;;;;;25.40;18.80;;;;;;;;;;5064555;28;20044;-78
2021/01/22 07:26:48;;;;;;;28.60;18.85;;;;;;;;;;5063332;28;20104;-79
2021/01/22 07:29:25;;;;;;;36.50;19.33;;;;;;;;;;5063108;28;20016;-80
2021/01/22 07:31:52;;;;;;;28.60;15.88;;;;;;;;;;5064035;28;20028;-80
2021/01/22 07:34:36;;;;;;;28.33;18.40;;;;;;;;;;5062466;28;20394;-79
2021/01/22 07:37:03;;;;;;;25.35;16.65;;;;;;;;;;5067802;28;20025;-80
2021/01/22 07:39:30;;;;;;;25.70;15.63;;;;;;;;;;5055709;28;20031;-80
2021/01/22 07:42:09;;;;;;;33.85;17.70;;;;;;;;;;5070827;28;20342;-80
2021/01/22 07:44:36;;;;;;;29.20;17.70;;;;;;;;;;5055751;28;20473;-79
2021/01/22 07:47:02;;;;;;;21.13;14.27;;;;;;;;;;5070907;28;20021;-79
2021/01/22 07:49:29;;;;;;;29.20;16.58;;;;;;;;;;5071139;28;20020;-79
2021/01/22 07:51:55;;;;;;;25.00;17.08;;;;;;;;;;5071080;28;20048;-79
2021/01/22 07:54:21;;;;;;;25.75;16.33;;;;;;;;;;5070957;28;20465;-79
2021/01/22 07:56:48;;;;;;;26.80;16.10;;;;;;;;;;5070855;28;20021;-80
2021/01/22 07:59:15;;;;;;;23.08;15.82;;;;;;;;;;5070753;28;20412;-79
2021/01/22 08:01:41;;;;;;;26.58;15.40;;;;;;;;;;5070775;28;20025;-79
2021/01/22 08:04:07;;;;;;;28.65;16.30;;;;;;;;;;5070673;28;20025;-80
2021/01/22 08:06:50;;;;;;;25.75;16.33;;;;;;;;;;5070633;28;20116;-80
2021/01/22 08:09:19;;;;;;;23.85;14.88;;;;;;;;;;5055294;28;20100;-80
2021/01/22 08:11:48;;;;;;;21.30;14.30;;;;;;;;;;5070791;28;20487;-79
2021/01/22 08:14:14;;;;;;;30.17;16.63;;;;;;;;;;5070452;28;20013;-80
2021/01/22 08:16:42;;;;;;;28.83;15.63;;;;;;;;;;5070678;28;20028;-80
2021/01/22 08:19:08;;;;;;;30.60;16.27;;;;;;;;;;5055103;28;20017;-80
2021/01/22 08:21:38;;;;;;;27.10;15.20;;;;;;;;;;5070455;28;20013;-79
2021/01/22 08:24:07;;;;;;;23.42;14.05;;;;;;;;;;5054982;28;20060;-79
2021/01/22 08:26:35;;;;;;;21.95;13.77;;;;;;;;;;5070481;28;20044;-79
2021/01/22 08:29:01;;;;;;;26.17;13.88;;;;;;;;;;5070259;28;20370;-80
2021/01/22 08:31:27;;;;;;;19.33;11.50;;;;;;;;;;5055450;28;20024;-80
2021/01/22 08:33:53;;;;;;;25.77;12.55;;;;;;;;;;5053050;28;20021;-80
2021/01/22 08:36:20;;;;;;;21.85;14.13;;;;;;;;;;5053462;28;20440;-80
2021/01/22 08:38:46;;;;;;;26.45;14.93;;;;;;;;;;5054988;28;20013;-79
2021/01/22 08:41:25;;;;;;;29.88;14.85;;;;;;;;;;5053144;28;20373;-79
2021/01/22 08:43:52;;;;;;;27.83;16.15;;;;;;;;;;5053329;28;20080;-79
2021/01/22 08:46:18;;;;;;;25.85;15.90;;;;;;;;;;5054337;28;20067;-80
2021/01/22 08:48:45;;;;;;;22.45;13.00;;;;;;;;;;5053466;28;20480;-80
2021/01/22 08:51:11;;;;;;;22.13;12.52;;;;;;;;;;5054517;28;20032;-80
2021/01/22 08:53:49;;;;;;;27.52;14.25;;;;;;;;;;5053342;28;20017;-80
2021/01/22 08:56:16;;;;;;;19.30;11.65;;;;;;;;;;5053005;28;20020;-79
2021/01/22 08:58:58;;;;;;;19.38;13.00;;;;;;;;;;5054251;28;20128;-79
2021/01/22 09:01:43;;;;;;;26.13;13.23;;;;;;;;;;5052579;28;20025;-79
2021/01/22 09:04:18;;;;;;;20.08;12.70;;;;;;;;;;5052608;28;20059;-79
2021/01/22 09:06:52;;;;;;;21.48;11.98;;;;;;;;;;5054179;28;20031;-80
2021/01/22 09:09:36;;;;;;;20.92;13.30;;;;;;;;;;5052891;28;20025;-79
2021/01/22 09:12:09;;;;;;;20.42;12.43;;;;;;;;;;5053803;28;20013;-79
2021/01/22 09:14:47;;;;;;;16.98;9.95;;;;;;;;;;5054230;28;20029;-79
2021/01/22 09:17:22;;;;;;;18.17;12.25;;;;;;;;;;5052556;28;20013;-79
2021/01/22 09:19:58;;;;;;;18.77;10.75;;;;;;;;;;5052746;28;20048;-80
2021/01/22 09:22:25;;;;;;;17.25;11.05;;;;;;;;;;5053779;28;20021;-79
2021/01/22 09:24:51;;;;;;;19.58;12.52;;;;;;;;;;5053980;28;20446;-80
2021/01/22 09:27:17;;;;;;;24.17;12.27;;;;;;;;;;5053459;28;20099;-80
2021/01/22 09:29:43;;;;;;;20.35;11.18;;;;;;;;;;5052502;28;20025;-79
2021/01/22 09:32:09;;;;;;;22.58;12.20;;;;;;;;;;5053668;28;20039;-80
2021/01/22 09:34:35;;;;;;;17.88;10.27;;;;;;;;;;5054176;28;20036;-80
2021/01/22 09:37:01;;;;;;;16.90;10.30;;;;;;;;;;5052453;28;20445;-80
2021/01/22 09:39:27;;;;;;;20.58;10.73;;;;;;;;;;5052339;28;20449;-79
2021/01/22 09:41:53;;;;;;;16.13;8.55;;;;;;;;;;5052036;28;20374;-79
2021/01/22 09:44:19;;;;;;;20.80;12.18;;;;;;;;;;5051652;28;20454;-80
2021/01/22 09:46:45;;;;;;;23.40;10.77;;;;;;;;;;5053305;28;20032;-80
2021/01/22 09:49:11;;;;;;;20.88;11.30;;;;;;;;;;5053297;28;20028;-79
2021/01/22 09:51:37;;;;;;;15.30;9.82;;;;;;;;;;5052196;28;20036;-79
2021/01/22 09:54:03;;;;;;;22.25;11.10;;;;;;;;;;5053332;28;20021;-79
2021/01/22 09:56:30;;;;;;;15.38;9.95;;;;;;;;;;5053537;28;20017;-79
2021/01/22 09:58:56;;;;;;;21.95;11.20;;;;;;;;;;5053502;28;20021;-80
2021/01/22 10:01:22;;;;;;;16.85;9.63;;;;;;;;;;5053162;28;20017;-80
2021/01/22 10:03:48;;;;;;;18.48;9.80;;;;;;;;;;5051903;28;20094;-79
2021/01/22 10:06:17;;;;;;;18.98;10.05;;;;;;;;;;5049303;28;20435;-79
2021/01/22 10:08:43;;;;;;;18.63;8.57;;;;;;;;;;5059354;28;20021;-78
2021/01/22 10:11:09;;;;;;;21.42;10.70;;;;;;;;;;5051410;28;20510;-79
2021/01/22 10:13:35;;;;;;;18.40;8.95;;;;;;;;;;5051045;28;20074;-79
2021/01/22 10:16:01;;;;;;;19.70;10.07;;;;;;;;;;5051663;28;20063;-80
2021/01/22 10:18:27;;;;;;;17.05;10.15;;;;;;;;;;5051197;28;20018;-80
2021/01/22 10:20:53;;;;;;;14.40;8.30;;;;;;;;;;5051339;28;20025;-77
2021/01/22 10:23:20;;;;;;;14.20;8.45;;;;;;;;;;5050921;28;20064;-75
2021/01/22 10:25:46;;;;;;;13.75;7.35;;;;;;;;;;5063343;28;20069;-79
2021/01/22 10:28:12;;;;;;;15.25;7.38;;;;;;;;;;5072670;28;20020;-78
2021/01/22 10:30:38;;;;;;;17.30;8.18;;;;;;;;;;5059953;28;20099;-78
2021/01/22 10:33:04;;;;;;;16.25;8.40;;;;;;;;;;5051004;28;20048;-78
2021/01/22 10:35:30;;;;;;;20.13;8.68;;;;;;;;;;5050741;28;20029;-78
2021/01/22 10:37:56;;;;;;;18.67;8.25;;;;;;;;;;5056210;28;20070;-77
2021/01/22 10:40:22;;;;;;;20.33;7.07;;;;;;;;;;5065875;28;20038;-78
2021/01/22 10:42:51;;;;;;;14.02;7.95;;;;;;;;;;5070811;28;20143;-77
2021/01/22 10:45:17;;;;;;;20.15;7.90;;;;;;;;;;5055078;28;20104;-78
2021/01/22 10:47:43;;;;;;;17.10;8.02;;;;;;;;;;5050635;28;20032;-78
2021/01/22 10:50:09;;;;;;;25.67;9.77;;;;;;;;;;5050297;28;20025;-77
2021/01/22 10:52:35;;;;;;;12.13;6.78;;;;;;;;;;5050469;28;20020;-78
2021/01/22 10:55:01;;;;;;;16.83;7.72;;;;;;;;;;5051211;28;20083;-78
2021/01/22 10:57:27;;;;;;;12.68;6.85;;;;;;;;;;5066187;28;20051;-78
2021/01/22 10:59:53;;;;;;;14.50;6.47;;;;;;;;;;5058599;28;20016;-78
2021/01/22 11:02:19;;;;;;;23.23;7.47;;;;;;;;;;5070117;28;20028;-78
2021/01/22 11:04:46;;;;;;;13.70;6.93;;;;;;;;;;5059968;28;20021;-78
2021/01/22 11:07:12;;;;;;;19.42;6.60;;;;;;;;;;5049994;28;20060;-78
2021/01/22 11:09:38;;;;;;;14.73;6.68;;;;;;;;;;5051614;28;20025;-78
2021/01/22 11:12:05;;;;;;;15.23;7.13;;;;;;;;;;5050174;28;20036;-79
2021/01/22 11:14:31;;;;;;;14.27;6.20;;;;;;;;;;5049946;28;20067;-78
2021/01/22 11:16:57;;;;;;;11.60;6.35;;;;;;;;;;5050354;28;20481;-79
2021/01/22 11:19:23;;;;;;;14.38;6.45;;;;;;;;;;5049937;28;20028;-76
2021/01/22 11:21:49;;;;;;;14.07;5.78;;;;;;;;;;5051498;28;20040;-80
2021/01/22 11:24:15;;;;;;;15.70;5.55;;;;;;;;;;5052002;28;20025;-81
2021/01/22 11:26:41;;;;;;;20.45;5.90;;;;;;;;;;5051582;28;20067;-80
2021/01/22 11:29:07;;;;;;;15.55;6.40;;;;;;;;;;5052760;28;20539;-78
2021/01/22 11:31:33;;;;;;;17.15;6.20;;;;;;;;;;5070183;28;20024;-78
2021/01/22 11:33:59;;;;;;;14.10;5.57;;;;;;;;;;5073511;28;20028;-77
2021/01/22 11:36:25;;;;;;;15.10;4.78;;;;;;;;;;5073679;28;20025;-77
2021/01/22 11:38:51;;;;;;;15.30;4.90;;;;;;;;;;5072754;28;20066;-77
2021/01/22 11:41:17;;;;;;;12.73;4.78;;;;;;;;;;5072445;28;20032;-77
2021/01/22 11:43:44;;;;;;;13.85;4.85;;;;;;;;;;5071982;28;20041;-77
2021/01/22 11:46:10;;;;;;;12.32;4.95;;;;;;;;;;5073228;28;20044;-77
2021/01/22 11:48:36;;;;;;;16.33;6.53;;;;;;;;;;5072330;28;20025;-78
2021/01/22 11:51:02;;;;;;;16.13;5.60;;;;;;;;;;5072172;28;20032;-77
2021/01/22 11:53:28;;;;;;;13.00;4.97;;;;;;;;;;5071728;28;20579;-79
2021/01/22 11:55:54;;;;;;;13.43;5.45;;;;;;;;;;5071507;28;20048;-80
2021/01/22 11:58:21;;;;;;;10.57;5.38;;;;;;;;;;5070268;28;20121;-78
2021/01/22 12:00:46;;;;;;;14.95;5.00;;;;;;;;;;5069473;28;20031;-78
2021/01/22 12:03:13;;;;;;;17.15;5.82;;;;;;;;;;5069626;28;20025;-78
2021/01/22 12:05:39;;;;;;;14.40;5.05;;;;;;;;;;5069767;28;20020;-79
2021/01/22 12:08:05;;;;;;;13.93;5.15;;;;;;;;;;5072969;28;20019;-78
2021/01/22 12:10:31;;;;;;;14.27;5.30;;;;;;;;;;5074618;28;20457;-78
2021/01/22 12:12:58;;;;;;;16.83;5.28;;;;;;;;;;5073423;28;20464;-78
2021/01/22 12:15:24;;;;;;;13.60;4.88;;;;;;;;;;5073148;28;20027;-80
2021/01/22 12:17:50;;;;;;;15.75;5.10;;;;;;;;;;5075557;28;20295;-76
2021/01/22 12:20:16;;;;;;;13.43;4.18;;;;;;;;;;5075576;28;20039;-79
2021/01/22 12:22:42;;;;;;;10.30;4.20;;;;;;;;;;5075551;28;20466;-78
2021/01/22 12:25:08;;;;;;;14.85;3.85;;;;;;;;;;5073208;28;20028;-77
2021/01/22 12:27:34;;;;;;;14.50;4.68;;;;;;;;;;5073274;28;20024;-77
2021/01/22 12:30:00;;;;;;;11.40;4.25;;;;;;;;;;5073137;28;20016;-77
2021/01/22 12:32:26;;;;;;;9.52;4.10;;;;;;;;;;5073274;28;20020;-78
2021/01/22 12:34:53;;;;;;;13.82;4.35;;;;;;;;;;5073609;28;20111;-77
2021/01/22 12:37:19;;;;;;;12.77;4.22;;;;;;;;;;5073337;28;20021;-78
2021/01/22 12:39:45;;;;;;;11.95;3.92;;;;;;;;;;5074981;28;20035;-78
2021/01/22 12:42:11;;;;;;;14.77;4.95;;;;;;;;;;5072880;28;20056;-78
2021/01/22 12:44:38;;;;;;;19.13;5.45;;;;;;;;;;5074697;28;20048;-77
2021/01/22 12:47:04;;;;;;;13.50;5.50;;;;;;;;;;5073001;28;20111;-77
2021/01/22 12:49:30;;;;;;;15.80;5.68;;;;;;;;;;5073051;28;20063;-78
2021/01/22 12:51:56;;;;;;;14.15;4.18;;;;;;;;;;5073303;28;20044;-77
2021/01/22 12:54:22;;;;;;;12.52;4.18;;;;;;;;;;5072717;28;20372;-78
2021/01/22 12:56:48;;;;;;;11.50;3.95;;;;;;;;;;5073125;28;20025;-79
2021/01/22 12:59:14;;;;;;;11.65;3.97;;;;;;;;;;5074382;28;20009;-79
2021/01/22 13:01:40;;;;;;;10.05;3.40;;;;;;;;;;5072664;28;20483;-77
2021/01/22 13:04:06;;;;;;;11.35;3.20;;;;;;;;;;5072413;28;20115;-79
2021/01/22 13:06:32;;;;;;;16.38;4.03;;;;;;;;;;5072046;28;20045;-79
2021/01/22 13:08:58;;;;;;;8.65;3.17;;;;;;;;;;5072262;28;20012;-79
2021/01/22 13:11:24;;;;;;;13.10;3.60;;;;;;;;;;5071993;28;20034;-77
2021/01/22 13:13:50;;;;;;;12.23;3.38;;;;;;;;;;5072239;28;20017;-79
2021/01/22 13:16:20;;;;;;;9.23;3.13;;;;;;;;;;5071891;28;20090;-79
2021/01/22 13:18:46;;;;;;;13.55;3.15;;;;;;;;;;5071388;28;20023;-78
2021/01/22 13:21:12;;;;;;;8.82;2.70;;;;;;;;;;5071799;28;20078;-78
2021/01/22 13:23:41;;;;;;;11.82;2.92;;;;;;;;;;5072785;28;20028;-78
2021/01/22 13:26:07;;;;;;;7.50;3.03;;;;;;;;;;5072594;28;20017;-78
2021/01/22 13:28:33;;;;;;;14.52;2.83;;;;;;;;;;5073419;28;20024;-78
2021/01/22 13:30:59;;;;;;;18.58;3.92;;;;;;;;;;5072432;28;20038;-78
2021/01/22 13:33:25;;;;;;;9.70;3.97;;;;;;;;;;5072360;28;20012;-78
2021/01/22 13:35:51;;;;;;;12.50;3.30;;;;;;;;;;5072409;28;20445;-77
2021/01/22 13:38:17;;;;;;;12.15;4.40;;;;;;;;;;5072150;28;20477;-78
2021/01/22 13:40:44;;;;;;;18.75;4.30;;;;;;;;;;5072315;28;20059;-78
2021/01/22 13:43:10;;;;;;;17.27;5.13;;;;;;;;;;5073409;28;20040;-77
2021/01/22 13:45:36;;;;;;;11.75;3.88;;;;;;;;;;5073322;28;20031;-78
2021/01/22 13:48:03;;;;;;;12.40;4.13;;;;;;;;;;5064570;28;20012;-77
2021/01/22 13:50:29;;;;;;;14.00;4.10;;;;;;;;;;5061431;28;20466;-76
2021/01/22 13:52:55;;;;;;;15.55;3.95;;;;;;;;;;5059887;28;20406;-76
2021/01/22 13:55:21;;;;;;;14.68;3.08;;;;;;;;;;5061244;28;20039;-77
2021/01/22 13:57:47;;;;;;;20.02;3.90;;;;;;;;;;5061235;28;20377;-77
2021/01/22 14:00:14;;;;;;;10.18;2.88;;;;;;;;;;5059254;28;20017;-77
2021/01/22 14:02:40;;;;;;;13.27;3.85;;;;;;;;;;5061249;28;20021;-77
2021/01/22 14:05:06;;;;;;;15.70;4.40;;;;;;;;;;5060905;28;20066;-76
2021/01/22 14:07:32;;;;;;;12.32;2.78;;;;;;;;;;5060840;28;20009;-77
2021/01/22 14:09:58;;;;;;;10.60;3.00;;;;;;;;;;5062527;28;20028;-77
2021/01/22 14:12:24;;;;;;;12.93;2.40;;;;;;;;;;5060537;28;20024;-77
2021/01/22 14:14:50;;;;;;;14.05;2.90;;;;;;;;;;5058744;28;20021;-77
2021/01/22 14:17:16;;;;;;;13.93;2.38;;;;;;;;;;5063441;28;20381;-76
2021/01/22 14:19:42;;;;;;;14.98;2.92;;;;;;;;;;5060936;28;20024;-77
2021/01/22 14:22:08;;;;;;;17.02;4.45;;;;;;;;;;5060839;28;20025;-77
2021/01/22 14:24:34;;;;;;;11.73;3.00;;;;;;;;;;5059186;28;20020;-77
2021/01/22 14:27:00;;;;;;;14.07;3.25;;;;;;;;;;5060798;28;20476;-77
2021/01/22 14:29:26;;;;;;;11.93;3.17;;;;;;;;;;5059047;28;20127;-77